Time,TemperatureF,DewpointF,PressureIn,WindDirection,WindDirectionDegrees,WindSpeedMPH,WindSpeedGustMPH,Humidity,HourlyPrecipIn,Conditions,Clouds,dailyrainin,SolarRadiationWatts/m^2,SoftwareType,DateUTC
2013-07-02 00:00:00,76.0,31.0,30.12,North,9,10.0,-999.0,19,-99.99,,,-99.99,0.060000,,2013-07-02 06:00:00,
2013-07-02 00:53:00,76.0,31.0,30.12,North,9,10.0,-999.0,19,-99.99,,,-99.99,0.060000,,2013-07-02 06:53:00,
2013-07-02 02:00:00,74.0,29.0,30.11,North,6,12.0,15.0,19,-99.99,,,-99.99,0.100000,,2013-07-02 08:00:00,
2013-07-02 02:53:00,74.0,29.0,30.11,North,6,12.0,15.0,19,-99.99,,,-99.99,0.100000,,2013-07-02 08:53:00,
2013-07-02 03:00:00,72.0,30.0,30.11,NNE,26,7.0,12.0,21,-99.99,,,-99.99,0.030000,,2013-07-02 09:00:00,
2013-07-02 04:00:00,67.0,34.0,30.13,ENE,68,7.0,12.0,29,-99.99,,,-99.99,0.000000,,2013-07-02 10:00:00,
2013-07-02 04:52:00,67.0,34.0,30.13,ENE,68,7.0,12.0,29,-99.99,,,-99.99,0.000000,,2013-07-02 10:52:00,
2013-07-02 05:00:00,65.0,38.0,30.13,NE,52,5.0,14.0,37,-99.99,,,-99.99,0.000000,,2013-07-02 11:00:00,
2013-07-02 05:52:00,65.0,38.0,30.13,NE,52,5.0,14.0,37,-99.99,,,-99.99,0.000000,,2013-07-02 11:52:00,
2013-07-02 06:00:00,65.0,44.0,30.14,NE,55,6.0,8.0,46,-99.99,,,-99.99,0.510000,,2013-07-02 12:00:00,
2013-07-02 06:52:00,65.0,44.0,30.14,NE,55,6.0,8.0,46,-99.99,,,-99.99,0.510000,,2013-07-02 12:52:00,
2013-07-02 07:00:00,65.0,40.0,30.15,NE,34,7.0,11.0,40,-99.99,,,-99.99,42.910000,,2013-07-02 13:00:00,
2013-07-02 08:00:00,68.0,43.0,30.15,ENE,68,6.0,11.0,40,-99.99,,,-99.99,233.399994,,2013-07-02 14:00:00,
2013-07-02 09:00:00,71.0,42.0,30.15,East,90,7.0,10.0,35,-99.99,,,-99.99,457.200012,,2013-07-02 15:00:00,
2013-07-02 10:00:00,75.0,41.0,30.14,ESE,123,8.0,13.0,30,-99.99,,,-99.99,648.200012,,2013-07-02 16:00:00,
2013-07-02 11:00:00,79.0,40.0,30.13,ESE,117,7.0,15.0,25,-99.99,,,-99.99,787.799988,,2013-07-02 17:00:00,
2013-07-02 12:00:00,81.0,38.0,30.13,SE,128,5.0,12.0,22,-99.99,,,-99.99,755.200012,,2013-07-02 18:00:00,
2013-07-02 13:00:00,81.0,37.0,30.11,SSE,161,4.0,12.0,21,-99.99,,,-99.99,760.400024,,2013-07-02 19:00:00,
2013-07-02 13:53:00,81.0,37.0,30.11,SSE,161,4.0,12.0,21,-99.99,,,-99.99,760.400024,,2013-07-02 19:53:00,
2013-07-02 14:00:00,86.0,34.0,30.09,SW,228,7.0,11.0,16,-99.99,,,-99.99,894.000000,,2013-07-02 20:00:00,
2013-07-02 15:00:00,86.0,32.0,30.07,WNW,298,9.0,18.0,14,-99.99,,,-99.99,651.700012,,2013-07-02 21:00:00,
2013-07-02 16:00:00,86.0,31.0,30.05,WNW,297,10.0,26.0,14,-99.99,,,-99.99,663.500000,,2013-07-02 22:00:00,
2013-07-02 16:53:00,86.0,31.0,30.05,WNW,297,10.0,26.0,14,-99.99,,,-99.99,663.500000,,2013-07-02 22:53:00,
2013-07-02 17:00:00,87.0,30.0,30.04,North,0,7.0,-999.0,13,-99.99,,,-99.99,530.299988,,2013-07-02 23:00:00,
2013-07-02 17:52:00,87.0,30.0,30.04,North,0,7.0,-999.0,13,-99.99,,,-99.99,530.299988,,2013-07-02 23:52:00,
2013-07-02 18:00:00,87.0,28.0,30.02,NW,313,10.0,-999.0,12,-99.99,,,-99.99,603.599976,,2013-07-03 00:00:00,
2013-07-02 18:52:00,87.0,28.0,30.02,NW,313,10.0,-999.0,12,-99.99,,,-99.99,603.599976,,2013-07-03 00:52:00,
2013-07-02 19:00:00,84.0,29.0,30.02,NNW,346,11.0,20.0,14,-99.99,,,-99.99,349.899994,,2013-07-03 01:00:00,
2013-07-02 19:59:00,84.0,29.0,30.02,NNW,346,11.0,20.0,14,-99.99,,,-99.99,349.899994,,2013-07-03 01:59:00,
2013-07-02 20:00:00,82.0,26.0,30.02,NNW,341,8.0,23.0,13,-99.99,,,-99.99,118.500000,,2013-07-03 02:00:00,
2013-07-02 20:59:00,82.0,26.0,30.02,NNW,341,8.0,23.0,13,-99.99,,,-99.99,118.500000,,2013-07-03 02:59:00,
2013-07-02 21:00:00,77.0,27.0,30.03,North,2,6.0,14.0,16,-99.99,,,-99.99,16.870001,,2013-07-03 03:00:00,
2013-07-02 21:58:00,77.0,27.0,30.03,North,2,6.0,14.0,16,-99.99,,,-99.99,16.870001,,2013-07-03 03:58:00,
2013-07-02 22:00:00,76.0,29.0,30.05,North,3,8.0,10.0,18,-99.99,,,-99.99,0.250000,,2013-07-03 04:00:00,
2013-07-02 22:52:00,76.0,29.0,30.05,North,3,8.0,10.0,18,-99.99,,,-99.99,0.250000,,2013-07-03 04:52:00,
2013-07-02 23:00:00,75.0,28.0,30.06,North,3,7.0,11.0,18,-99.99,,,-99.99,0.070000,,2013-07-03 05:00:00,